sensor_id;sensor_type;location;lat;lon;timestamp;temperature;humidity
2202;DHT22;1107;48.654;9.250;2023-07-09T00:02:12;22.50;1.00
2202;DHT22;1107;48.654;9.250;2023-07-09T00:04:39;22.50;1.00
2202;DHT22;1107;48.654;9.250;2023-07-09T00:07:14;22.40;1.00
2202;DHT22;1107;48.654;9.250;2023-07-09T00:09:42;22.30;1.00
2202;DHT22;1107;48.654;9.250;2023-07-09T00:12:14;22.20;1.00
2202;DHT22;1107;48.654;9.250;2023-07-09T00:14:42;22.10;1.00
2202;DHT22;1107;48.654;9.250;2023-07-09T00:17:10;22.00;1.00
2202;DHT22;1107;48.654;9.250;2023-07-09T00:19:38;21.90;1.00
2202;DHT22;1107;48.654;9.250;2023-07-09T00:22:13;21.90;1.00
2202;DHT22;1107;48.654;9.250;2023-07-09T00:24:43;21.90;1.00
2202;DHT22;1107;48.654;9.250;2023-07-09T00:27:11;21.90;1.00
2202;DHT22;1107;48.654;9.250;2023-07-09T00:29:39;21.80;1.00
2202;DHT22;1107;48.654;9.250;2023-07-09T00:32:11;21.90;1.00
2202;DHT22;1107;48.654;9.250;2023-07-09T00:34:41;21.90;1.00
2202;DHT22;1107;48.654;9.250;2023-07-09T00:37:10;22.00;1.00
2202;DHT22;1107;48.654;9.250;2023-07-09T00:39:39;22.10;1.00
2202;DHT22;1107;48.654;9.250;2023-07-09T00:42:12;22.10;1.00
2202;DHT22;1107;48.654;9.250;2023-07-09T00:44:41;22.00;1.00
2202;DHT22;1107;48.654;9.250;2023-07-09T00:47:28;21.90;1.00
2202;DHT22;1107;48.654;9.250;2023-07-09T00:50:11;21.80;1.00
2202;DHT22;1107;48.654;9.250;2023-07-09T00:52:46;21.70;1.00
2202;DHT22;1107;48.654;9.250;2023-07-09T00:55:20;21.60;1.00
2202;DHT22;1107;48.654;9.250;2023-07-09T00:57:50;21.60;1.00
2202;DHT22;1107;48.654;9.250;2023-07-09T01:00:27;21.50;1.00
2202;DHT22;1107;48.654;9.250;2023-07-09T01:02:55;21.50;1.00
2202;DHT22;1107;48.654;9.250;2023-07-09T01:05:24;21.40;1.00
2202;DHT22;1107;48.654;9.250;2023-07-09T01:07:51;21.40;1.00
2202;DHT22;1107;48.654;9.250;2023-07-09T01:10:19;21.30;1.00
2202;DHT22;1107;48.654;9.250;2023-07-09T01:12:47;21.30;1.00
2202;DHT22;1107;48.654;9.250;2023-07-09T01:15:14;21.20;1.00
2202;DHT22;1107;48.654;9.250;2023-07-09T01:17:43;21.20;1.00
2202;DHT22;1107;48.654;9.250;2023-07-09T01:20:16;21.20;1.00
2202;DHT22;1107;48.654;9.250;2023-07-09T01:22:48;21.20;1.00
2202;DHT22;1107;48.654;9.250;2023-07-09T01:25:16;21.20;1.00
2202;DHT22;1107;48.654;9.250;2023-07-09T01:27:46;21.20;1.00
2202;DHT22;1107;48.654;9.250;2023-07-09T01:30:15;21.20;1.00
2202;DHT22;1107;48.654;9.250;2023-07-09T01:32:43;21.20;1.00
2202;DHT22;1107;48.654;9.250;2023-07-09T01:35:12;21.20;1.00
2202;DHT22;1107;48.654;9.250;2023-07-09T01:37:41;21.30;1.00
2202;DHT22;1107;48.654;9.250;2023-07-09T01:40:12;21.20;1.00
2202;DHT22;1107;48.654;9.250;2023-07-09T01:42:39;21.20;1.00
2202;DHT22;1107;48.654;9.250;2023-07-09T01:45:07;21.20;1.00
2202;DHT22;1107;48.654;9.250;2023-07-09T01:47:35;21.20;1.00
2202;DHT22;1107;48.654;9.250;2023-07-09T01:50:03;21.20;1.00
2202;DHT22;1107;48.654;9.250;2023-07-09T01:52:31;21.10;1.00
2202;DHT22;1107;48.654;9.250;2023-07-09T01:54:59;21.10;1.00
2202;DHT22;1107;48.654;9.250;2023-07-09T01:57:29;21.10;1.00
2202;DHT22;1107;48.654;9.250;2023-07-09T02:00:00;21.10;1.00
2202;DHT22;1107;48.654;9.250;2023-07-09T02:02:27;21.10;1.00
2202;DHT22;1107;48.654;9.250;2023-07-09T02:04:55;21.00;1.00
2202;DHT22;1107;48.654;9.250;2023-07-09T02:07:24;21.00;1.00
2202;DHT22;1107;48.654;9.250;2023-07-09T02:09:52;20.90;1.00
2202;DHT22;1107;48.654;9.250;2023-07-09T02:12:19;20.80;1.00
2202;DHT22;1107;48.654;9.250;2023-07-09T02:14:48;20.80;1.00
2202;DHT22;1107;48.654;9.250;2023-07-09T02:17:15;20.70;15.10
2202;DHT22;1107;48.654;9.250;2023-07-09T02:19:43;20.70;99.90
2202;DHT22;1107;48.654;9.250;2023-07-09T02:22:11;20.60;99.90
2202;DHT22;1107;48.654;9.250;2023-07-09T02:24:38;20.50;99.90
2202;DHT22;1107;48.654;9.250;2023-07-09T02:27:07;20.50;99.90
2202;DHT22;1107;48.654;9.250;2023-07-09T02:29:36;20.50;99.90
2202;DHT22;1107;48.654;9.250;2023-07-09T02:32:05;20.50;99.90
2202;DHT22;1107;48.654;9.250;2023-07-09T02:34:32;20.50;99.90
2202;DHT22;1107;48.654;9.250;2023-07-09T02:37:01;20.40;99.90
2202;DHT22;1107;48.654;9.250;2023-07-09T02:39:28;20.40;99.90
2202;DHT22;1107;48.654;9.250;2023-07-09T02:41:55;20.40;99.90
2202;DHT22;1107;48.654;9.250;2023-07-09T02:44:21;20.30;99.90
2202;DHT22;1107;48.654;9.250;2023-07-09T02:46:48;20.30;99.90
2202;DHT22;1107;48.654;9.250;2023-07-09T02:49:17;20.20;1.00
2202;DHT22;1107;48.654;9.250;2023-07-09T02:51:44;20.20;1.00
2202;DHT22;1107;48.654;9.250;2023-07-09T02:54:11;20.20;1.00
2202;DHT22;1107;48.654;9.250;2023-07-09T02:56:38;20.10;1.00
2202;DHT22;1107;48.654;9.250;2023-07-09T02:59:05;20.10;1.00
2202;DHT22;1107;48.654;9.250;2023-07-09T03:01:32;20.00;1.00
2202;DHT22;1107;48.654;9.250;2023-07-09T03:04:00;20.00;1.00
2202;DHT22;1107;48.654;9.250;2023-07-09T03:06:30;20.00;1.00
2202;DHT22;1107;48.654;9.250;2023-07-09T03:08:59;19.90;1.00
2202;DHT22;1107;48.654;9.250;2023-07-09T03:11:29;19.90;1.00
2202;DHT22;1107;48.654;9.250;2023-07-09T03:13:57;19.90;1.00
2202;DHT22;1107;48.654;9.250;2023-07-09T03:16:26;19.80;9.10
2202;DHT22;1107;48.654;9.250;2023-07-09T03:18:53;19.80;99.90
2202;DHT22;1107;48.654;9.250;2023-07-09T03:21:20;19.80;99.90
2202;DHT22;1107;48.654;9.250;2023-07-09T03:23:49;19.80;99.90
2202;DHT22;1107;48.654;9.250;2023-07-09T03:26:16;19.70;99.90
2202;DHT22;1107;48.654;9.250;2023-07-09T03:28:43;19.70;99.90
2202;DHT22;1107;48.654;9.250;2023-07-09T03:31:10;19.60;1.00
2202;DHT22;1107;48.654;9.250;2023-07-09T03:33:37;19.60;1.00
2202;DHT22;1107;48.654;9.250;2023-07-09T03:36:05;19.60;1.00
2202;DHT22;1107;48.654;9.250;2023-07-09T03:38:32;19.50;1.00
2202;DHT22;1107;48.654;9.250;2023-07-09T03:41:01;19.60;1.00
2202;DHT22;1107;48.654;9.250;2023-07-09T03:43:28;19.50;1.00
2202;DHT22;1107;48.654;9.250;2023-07-09T03:45:55;19.50;1.00
2202;DHT22;1107;48.654;9.250;2023-07-09T03:48:22;19.50;1.00
2202;DHT22;1107;48.654;9.250;2023-07-09T03:50:49;19.50;1.00
2202;DHT22;1107;48.654;9.250;2023-07-09T03:53:16;19.50;1.00
2202;DHT22;1107;48.654;9.250;2023-07-09T03:55:45;19.40;76.40
2202;DHT22;1107;48.654;9.250;2023-07-09T03:58:14;19.40;99.90
2202;DHT22;1107;48.654;9.250;2023-07-09T04:00:41;19.40;99.90
2202;DHT22;1107;48.654;9.250;2023-07-09T04:03:08;19.40;99.90
2202;DHT22;1107;48.654;9.250;2023-07-09T04:05:36;19.30;99.90
2202;DHT22;1107;48.654;9.250;2023-07-09T04:08:03;19.30;1.00
2202;DHT22;1107;48.654;9.250;2023-07-09T04:10:31;19.30;99.90
2202;DHT22;1107;48.654;9.250;2023-07-09T04:12:58;19.40;1.00
2202;DHT22;1107;48.654;9.250;2023-07-09T04:15:27;19.50;99.90
2202;DHT22;1107;48.654;9.250;2023-07-09T04:17:54;19.50;99.90
2202;DHT22;1107;48.654;9.250;2023-07-09T04:20:21;19.60;99.90
2202;DHT22;1107;48.654;9.250;2023-07-09T04:22:48;19.60;1.00
2202;DHT22;1107;48.654;9.250;2023-07-09T04:25:16;19.70;1.00
2202;DHT22;1107;48.654;9.250;2023-07-09T04:27:43;19.70;1.00
2202;DHT22;1107;48.654;9.250;2023-07-09T04:30:12;19.70;1.00
2202;DHT22;1107;48.654;9.250;2023-07-09T04:32:42;19.70;99.90
2202;DHT22;1107;48.654;9.250;2023-07-09T04:35:10;19.80;9.70
2202;DHT22;1107;48.654;9.250;2023-07-09T04:37:38;19.80;1.00
2202;DHT22;1107;48.654;9.250;2023-07-09T04:40:07;19.90;1.00
2202;DHT22;1107;48.654;9.250;2023-07-09T04:42:36;20.00;1.00
2202;DHT22;1107;48.654;9.250;2023-07-09T04:45:05;20.10;1.00
2202;DHT22;1107;48.654;9.250;2023-07-09T04:47:33;20.20;99.90
2202;DHT22;1107;48.654;9.250;2023-07-09T04:50:01;20.20;99.90
2202;DHT22;1107;48.654;9.250;2023-07-09T04:52:29;20.30;99.90
2202;DHT22;1107;48.654;9.250;2023-07-09T04:54:56;20.40;1.00
2202;DHT22;1107;48.654;9.250;2023-07-09T04:57:24;20.50;1.00
2202;DHT22;1107;48.654;9.250;2023-07-09T04:59:51;20.50;1.00
2202;DHT22;1107;48.654;9.250;2023-07-09T05:02:18;20.50;1.00
2202;DHT22;1107;48.654;9.250;2023-07-09T05:04:45;20.60;1.00
2202;DHT22;1107;48.654;9.250;2023-07-09T05:07:13;20.70;1.00
2202;DHT22;1107;48.654;9.250;2023-07-09T05:09:40;20.80;1.00
2202;DHT22;1107;48.654;9.250;2023-07-09T05:12:08;20.80;1.00
2202;DHT22;1107;48.654;9.250;2023-07-09T05:14:35;20.90;1.00
2202;DHT22;1107;48.654;9.250;2023-07-09T05:17:02;21.10;1.00
2202;DHT22;1107;48.654;9.250;2023-07-09T05:19:29;21.20;1.00
2202;DHT22;1107;48.654;9.250;2023-07-09T05:21:56;21.30;1.00
2202;DHT22;1107;48.654;9.250;2023-07-09T05:24:25;21.50;99.90
2202;DHT22;1107;48.654;9.250;2023-07-09T05:26:52;21.70;99.90
2202;DHT22;1107;48.654;9.250;2023-07-09T05:29:19;21.70;99.90
2202;DHT22;1107;48.654;9.250;2023-07-09T05:31:45;21.60;99.90
2202;DHT22;1107;48.654;9.250;2023-07-09T05:34:12;21.50;99.90
2202;DHT22;1107;48.654;9.250;2023-07-09T05:36:39;21.50;99.90
2202;DHT22;1107;48.654;9.250;2023-07-09T05:39:06;21.50;99.90
2202;DHT22;1107;48.654;9.250;2023-07-09T05:41:34;21.40;99.90
2202;DHT22;1107;48.654;9.250;2023-07-09T05:44:01;21.40;1.00
2202;DHT22;1107;48.654;9.250;2023-07-09T05:46:33;21.50;1.00
2202;DHT22;1107;48.654;9.250;2023-07-09T05:49:01;21.60;99.90
2202;DHT22;1107;48.654;9.250;2023-07-09T05:51:28;21.60;99.90
2202;DHT22;1107;48.654;9.250;2023-07-09T05:53:55;21.80;99.90
2202;DHT22;1107;48.654;9.250;2023-07-09T05:56:23;22.00;99.90
2202;DHT22;1107;48.654;9.250;2023-07-09T05:58:51;22.30;13.10
2202;DHT22;1107;48.654;9.250;2023-07-09T06:01:19;22.50;1.00
2202;DHT22;1107;48.654;9.250;2023-07-09T06:03:46;22.70;1.00
2202;DHT22;1107;48.654;9.250;2023-07-09T06:06:15;22.90;1.00
2202;DHT22;1107;48.654;9.250;2023-07-09T06:08:42;23.00;1.00
2202;DHT22;1107;48.654;9.250;2023-07-09T06:11:09;23.10;1.00
2202;DHT22;1107;48.654;9.250;2023-07-09T06:13:36;23.50;1.00
2202;DHT22;1107;48.654;9.250;2023-07-09T06:16:05;23.70;1.00
2202;DHT22;1107;48.654;9.250;2023-07-09T06:18:32;23.90;1.00
2202;DHT22;1107;48.654;9.250;2023-07-09T06:21:01;23.90;1.00
2202;DHT22;1107;48.654;9.250;2023-07-09T06:23:29;24.00;1.00
2202;DHT22;1107;48.654;9.250;2023-07-09T06:25:56;24.20;1.00
2202;DHT22;1107;48.654;9.250;2023-07-09T06:28:26;24.40;1.00
2202;DHT22;1107;48.654;9.250;2023-07-09T06:30:54;24.40;1.00
2202;DHT22;1107;48.654;9.250;2023-07-09T06:33:23;24.60;1.00
2202;DHT22;1107;48.654;9.250;2023-07-09T06:35:52;24.60;1.00
2202;DHT22;1107;48.654;9.250;2023-07-09T06:38:20;24.70;1.00
2202;DHT22;1107;48.654;9.250;2023-07-09T06:40:48;24.90;1.00
2202;DHT22;1107;48.654;9.250;2023-07-09T06:43:15;25.20;1.00
2202;DHT22;1107;48.654;9.250;2023-07-09T06:45:49;25.40;1.00
2202;DHT22;1107;48.654;9.250;2023-07-09T06:48:16;25.80;1.00
2202;DHT22;1107;48.654;9.250;2023-07-09T06:50:44;25.70;1.00
2202;DHT22;1107;48.654;9.250;2023-07-09T06:53:11;26.00;99.90
2202;DHT22;1107;48.654;9.250;2023-07-09T06:55:38;26.10;99.90
2202;DHT22;1107;48.654;9.250;2023-07-09T06:58:06;26.20;99.90
2202;DHT22;1107;48.654;9.250;2023-07-09T07:00:33;26.70;99.90
2202;DHT22;1107;48.654;9.250;2023-07-09T07:03:01;26.70;99.90
2202;DHT22;1107;48.654;9.250;2023-07-09T07:05:28;26.70;99.90
2202;DHT22;1107;48.654;9.250;2023-07-09T07:07:56;26.90;99.90
2202;DHT22;1107;48.654;9.250;2023-07-09T07:10:24;27.20;99.90
2202;DHT22;1107;48.654;9.250;2023-07-09T07:12:52;27.20;99.90
2202;DHT22;1107;48.654;9.250;2023-07-09T07:15:20;27.50;99.90
2202;DHT22;1107;48.654;9.250;2023-07-09T07:17:47;27.70;99.90
2202;DHT22;1107;48.654;9.250;2023-07-09T07:20:14;27.70;99.90
2202;DHT22;1107;48.654;9.250;2023-07-09T07:22:41;27.90;99.90
2202;DHT22;1107;48.654;9.250;2023-07-09T07:25:10;28.00;99.90
2202;DHT22;1107;48.654;9.250;2023-07-09T07:27:38;28.20;99.90
2202;DHT22;1107;48.654;9.250;2023-07-09T07:30:06;28.40;99.90
2202;DHT22;1107;48.654;9.250;2023-07-09T07:32:34;29.00;99.90
2202;DHT22;1107;48.654;9.250;2023-07-09T07:35:01;29.60;99.90
2202;DHT22;1107;48.654;9.250;2023-07-09T07:37:28;29.80;99.90
2202;DHT22;1107;48.654;9.250;2023-07-09T07:39:55;30.30;99.90
2202;DHT22;1107;48.654;9.250;2023-07-09T07:42:23;30.40;99.90
2202;DHT22;1107;48.654;9.250;2023-07-09T07:44:50;30.30;99.90
2202;DHT22;1107;48.654;9.250;2023-07-09T07:47:17;30.40;99.90
2202;DHT22;1107;48.654;9.250;2023-07-09T07:49:44;30.80;99.90
2202;DHT22;1107;48.654;9.250;2023-07-09T07:52:11;31.20;99.90
2202;DHT22;1107;48.654;9.250;2023-07-09T07:54:38;31.80;99.90
2202;DHT22;1107;48.654;9.250;2023-07-09T07:57:05;32.00;99.90
2202;DHT22;1107;48.654;9.250;2023-07-09T07:59:36;32.50;99.90
2202;DHT22;1107;48.654;9.250;2023-07-09T08:02:04;32.70;99.90
2202;DHT22;1107;48.654;9.250;2023-07-09T08:04:31;33.00;99.90
2202;DHT22;1107;48.654;9.250;2023-07-09T08:06:58;33.00;99.90
2202;DHT22;1107;48.654;9.250;2023-07-09T08:09:25;33.30;99.90
2202;DHT22;1107;48.654;9.250;2023-07-09T08:11:51;33.70;99.90
2202;DHT22;1107;48.654;9.250;2023-07-09T08:14:18;34.10;99.90
2202;DHT22;1107;48.654;9.250;2023-07-09T08:16:46;34.30;99.70
2202;DHT22;1107;48.654;9.250;2023-07-09T08:19:13;34.40;95.10
2202;DHT22;1107;48.654;9.250;2023-07-09T08:21:40;34.40;85.80
2202;DHT22;1107;48.654;9.250;2023-07-09T08:24:07;34.20;72.40
2202;DHT22;1107;48.654;9.250;2023-07-09T08:26:34;34.30;68.10
2202;DHT22;1107;48.654;9.250;2023-07-09T08:29:03;34.80;66.10
2202;DHT22;1107;48.654;9.250;2023-07-09T08:31:31;35.30;58.10
2202;DHT22;1107;48.654;9.250;2023-07-09T08:33:59;35.70;53.00
2202;DHT22;1107;48.654;9.250;2023-07-09T08:36:27;36.10;50.60
2202;DHT22;1107;48.654;9.250;2023-07-09T08:38:54;36.30;39.90
2202;DHT22;1107;48.654;9.250;2023-07-09T08:41:37;36.50;37.10
2202;DHT22;1107;48.654;9.250;2023-07-09T08:47:06;36.50;23.30
2202;DHT22;1107;48.654;9.250;2023-07-09T08:49:42;36.50;18.50
2202;DHT22;1107;48.654;9.250;2023-07-09T08:52:15;36.80;15.50
2202;DHT22;1107;48.654;9.250;2023-07-09T08:54:46;36.90;12.80
2202;DHT22;1107;48.654;9.250;2023-07-09T08:57:19;36.80;11.00
2202;DHT22;1107;48.654;9.250;2023-07-09T08:59:48;37.10;9.70
2202;DHT22;1107;48.654;9.250;2023-07-09T09:02:29;37.30;7.20
2202;DHT22;1107;48.654;9.250;2023-07-09T09:04:58;37.70;4.60
2202;DHT22;1107;48.654;9.250;2023-07-09T09:07:36;37.70;1.00
2202;DHT22;1107;48.654;9.250;2023-07-09T09:10:05;37.60;1.00
2202;DHT22;1107;48.654;9.250;2023-07-09T09:12:37;37.60;1.00
2202;DHT22;1107;48.654;9.250;2023-07-09T09:15:12;37.40;1.00
2202;DHT22;1107;48.654;9.250;2023-07-09T09:17:41;37.70;1.00
2202;DHT22;1107;48.654;9.250;2023-07-09T09:20:13;38.10;1.00
2202;DHT22;1107;48.654;9.250;2023-07-09T09:22:46;38.20;1.00
2202;DHT22;1107;48.654;9.250;2023-07-09T09:25:21;37.70;1.00
2202;DHT22;1107;48.654;9.250;2023-07-09T09:27:49;37.90;1.00
2202;DHT22;1107;48.654;9.250;2023-07-09T09:30:18;37.50;1.00
2202;DHT22;1107;48.654;9.250;2023-07-09T09:32:47;37.80;1.00
2202;DHT22;1107;48.654;9.250;2023-07-09T09:35:18;37.40;1.00
2202;DHT22;1107;48.654;9.250;2023-07-09T09:37:51;37.40;1.00
2202;DHT22;1107;48.654;9.250;2023-07-09T09:40:19;37.50;1.00
2202;DHT22;1107;48.654;9.250;2023-07-09T09:42:48;38.20;1.00
2202;DHT22;1107;48.654;9.250;2023-07-09T09:45:17;38.40;1.00
2202;DHT22;1107;48.654;9.250;2023-07-09T09:47:46;39.00;1.00
2202;DHT22;1107;48.654;9.250;2023-07-09T09:50:16;39.30;1.00
2202;DHT22;1107;48.654;9.250;2023-07-09T09:52:45;39.60;1.00
2202;DHT22;1107;48.654;9.250;2023-07-09T09:55:16;39.50;1.00
2202;DHT22;1107;48.654;9.250;2023-07-09T09:57:48;39.90;1.00
2202;DHT22;1107;48.654;9.250;2023-07-09T10:00:16;40.20;1.00
2202;DHT22;1107;48.654;9.250;2023-07-09T10:02:44;40.10;1.00
2202;DHT22;1107;48.654;9.250;2023-07-09T10:05:12;40.10;1.00
2202;DHT22;1107;48.654;9.250;2023-07-09T10:07:46;39.90;1.00
2202;DHT22;1107;48.654;9.250;2023-07-09T10:10:18;39.00;1.00
2202;DHT22;1107;48.654;9.250;2023-07-09T10:12:50;38.00;1.00
2202;DHT22;1107;48.654;9.250;2023-07-09T10:15:28;37.90;1.00
2202;DHT22;1107;48.654;9.250;2023-07-09T10:18:02;37.70;1.00
2202;DHT22;1107;48.654;9.250;2023-07-09T10:20:34;37.60;1.00
2202;DHT22;1107;48.654;9.250;2023-07-09T10:23:14;37.60;1.00
2202;DHT22;1107;48.654;9.250;2023-07-09T10:25:51;37.30;1.00
2202;DHT22;1107;48.654;9.250;2023-07-09T10:28:32;37.40;1.00
2202;DHT22;1107;48.654;9.250;2023-07-09T10:31:08;37.00;1.00
2202;DHT22;1107;48.654;9.250;2023-07-09T10:33:45;36.90;1.00
2202;DHT22;1107;48.654;9.250;2023-07-09T10:36:28;37.00;1.00
2202;DHT22;1107;48.654;9.250;2023-07-09T10:39:00;36.90;1.00
2202;DHT22;1107;48.654;9.250;2023-07-09T10:41:30;36.90;1.00
2202;DHT22;1107;48.654;9.250;2023-07-09T10:44:01;36.70;1.00
2202;DHT22;1107;48.654;9.250;2023-07-09T10:46:32;36.70;1.00
2202;DHT22;1107;48.654;9.250;2023-07-09T10:49:03;36.70;1.00
2202;DHT22;1107;48.654;9.250;2023-07-09T10:51:33;36.70;1.00
2202;DHT22;1107;48.654;9.250;2023-07-09T10:54:13;36.80;1.00
2202;DHT22;1107;48.654;9.250;2023-07-09T10:56:43;36.90;1.00
2202;DHT22;1107;48.654;9.250;2023-07-09T10:59:18;35.90;1.00
2202;DHT22;1107;48.654;9.250;2023-07-09T11:01:50;35.90;1.00
2202;DHT22;1107;48.654;9.250;2023-07-09T11:04:26;35.60;1.00
2202;DHT22;1107;48.654;9.250;2023-07-09T11:06:59;35.60;1.00
2202;DHT22;1107;48.654;9.250;2023-07-09T11:09:32;36.30;1.00
2202;DHT22;1107;48.654;9.250;2023-07-09T11:12:04;36.30;1.00
2202;DHT22;1107;48.654;9.250;2023-07-09T11:14:35;36.30;1.00
2202;DHT22;1107;48.654;9.250;2023-07-09T11:17:04;36.60;1.00
2202;DHT22;1107;48.654;9.250;2023-07-09T11:19:41;36.90;1.00
2202;DHT22;1107;48.654;9.250;2023-07-09T11:22:15;36.80;1.00
2202;DHT22;1107;48.654;9.250;2023-07-09T11:24:50;36.90;1.00
2202;DHT22;1107;48.654;9.250;2023-07-09T11:27:20;36.80;1.00
2202;DHT22;1107;48.654;9.250;2023-07-09T11:29:57;36.80;1.00
2202;DHT22;1107;48.654;9.250;2023-07-09T11:32:26;36.90;1.00
2202;DHT22;1107;48.654;9.250;2023-07-09T11:34:53;37.00;1.00
2202;DHT22;1107;48.654;9.250;2023-07-09T11:37:25;37.10;1.00
2202;DHT22;1107;48.654;9.250;2023-07-09T11:39:54;36.60;1.00
2202;DHT22;1107;48.654;9.250;2023-07-09T11:42:30;36.60;1.00
2202;DHT22;1107;48.654;9.250;2023-07-09T11:45:04;36.60;1.00
2202;DHT22;1107;48.654;9.250;2023-07-09T11:47:36;37.00;1.00
2202;DHT22;1107;48.654;9.250;2023-07-09T11:50:05;37.40;1.00
2202;DHT22;1107;48.654;9.250;2023-07-09T11:52:41;37.70;1.00
2202;DHT22;1107;48.654;9.250;2023-07-09T11:55:25;38.00;1.00
2202;DHT22;1107;48.654;9.250;2023-07-09T11:57:53;38.20;1.00
2202;DHT22;1107;48.654;9.250;2023-07-09T12:00:21;37.80;1.00
2202;DHT22;1107;48.654;9.250;2023-07-09T12:02:48;37.00;1.00
2202;DHT22;1107;48.654;9.250;2023-07-09T12:05:19;37.10;1.00
2202;DHT22;1107;48.654;9.250;2023-07-09T12:07:47;37.30;1.00
2202;DHT22;1107;48.654;9.250;2023-07-09T12:10:21;37.20;1.00
2202;DHT22;1107;48.654;9.250;2023-07-09T12:12:48;37.00;1.00
2202;DHT22;1107;48.654;9.250;2023-07-09T12:15:22;37.20;1.00
2202;DHT22;1107;48.654;9.250;2023-07-09T12:17:57;37.40;1.00
2202;DHT22;1107;48.654;9.250;2023-07-09T12:20:25;37.50;1.00
2202;DHT22;1107;48.654;9.250;2023-07-09T12:22:52;37.60;1.00
2202;DHT22;1107;48.654;9.250;2023-07-09T12:25:23;37.80;1.00
2202;DHT22;1107;48.654;9.250;2023-07-09T12:27:52;37.90;1.00
2202;DHT22;1107;48.654;9.250;2023-07-09T12:30:19;37.60;1.00
2202;DHT22;1107;48.654;9.250;2023-07-09T12:32:48;37.60;1.00
2202;DHT22;1107;48.654;9.250;2023-07-09T12:35:16;37.20;1.00
2202;DHT22;1107;48.654;9.250;2023-07-09T12:37:46;37.30;1.00
2202;DHT22;1107;48.654;9.250;2023-07-09T12:40:15;37.40;1.00
2202;DHT22;1107;48.654;9.250;2023-07-09T12:42:44;37.50;1.00
2202;DHT22;1107;48.654;9.250;2023-07-09T12:45:16;37.50;1.00
2202;DHT22;1107;48.654;9.250;2023-07-09T12:47:45;38.00;1.00
2202;DHT22;1107;48.654;9.250;2023-07-09T12:50:26;38.30;1.00
2202;DHT22;1107;48.654;9.250;2023-07-09T12:52:56;38.30;1.00
2202;DHT22;1107;48.654;9.250;2023-07-09T12:55:25;38.10;1.00
2202;DHT22;1107;48.654;9.250;2023-07-09T12:57:55;37.60;1.00
2202;DHT22;1107;48.654;9.250;2023-07-09T13:00:25;37.50;1.00
2202;DHT22;1107;48.654;9.250;2023-07-09T13:02:54;36.90;1.00
2202;DHT22;1107;48.654;9.250;2023-07-09T13:05:23;36.30;1.00
2202;DHT22;1107;48.654;9.250;2023-07-09T13:07:52;36.70;1.00
2202;DHT22;1107;48.654;9.250;2023-07-09T13:10:22;37.00;1.00
2202;DHT22;1107;48.654;9.250;2023-07-09T13:12:54;37.30;1.00
2202;DHT22;1107;48.654;9.250;2023-07-09T13:15:29;37.40;1.00
2202;DHT22;1107;48.654;9.250;2023-07-09T13:18:01;37.50;1.00
2202;DHT22;1107;48.654;9.250;2023-07-09T13:20:29;37.40;1.00
2202;DHT22;1107;48.654;9.250;2023-07-09T13:22:58;37.70;1.00
2202;DHT22;1107;48.654;9.250;2023-07-09T13:25:25;37.80;1.00
2202;DHT22;1107;48.654;9.250;2023-07-09T13:27:55;37.80;1.00
2202;DHT22;1107;48.654;9.250;2023-07-09T13:30:21;38.10;1.00
2202;DHT22;1107;48.654;9.250;2023-07-09T13:32:49;38.00;1.00
2202;DHT22;1107;48.654;9.250;2023-07-09T13:35:18;37.60;1.00
2202;DHT22;1107;48.654;9.250;2023-07-09T13:37:45;37.20;1.00
2202;DHT22;1107;48.654;9.250;2023-07-09T13:40:14;37.30;1.00
2202;DHT22;1107;48.654;9.250;2023-07-09T13:42:42;37.30;1.00
2202;DHT22;1107;48.654;9.250;2023-07-09T13:45:24;37.20;1.00
2202;DHT22;1107;48.654;9.250;2023-07-09T13:47:51;37.40;1.00
2202;DHT22;1107;48.654;9.250;2023-07-09T13:50:19;37.60;1.00
2202;DHT22;1107;48.654;9.250;2023-07-09T13:52:46;37.80;1.00
2202;DHT22;1107;48.654;9.250;2023-07-09T13:55:18;38.10;1.00
2202;DHT22;1107;48.654;9.250;2023-07-09T13:57:46;38.00;1.00
2202;DHT22;1107;48.654;9.250;2023-07-09T14:00:14;37.80;1.00
2202;DHT22;1107;48.654;9.250;2023-07-09T14:02:44;37.80;1.00
2202;DHT22;1107;48.654;9.250;2023-07-09T14:05:13;38.00;1.00
2202;DHT22;1107;48.654;9.250;2023-07-09T14:07:41;37.80;1.00
2202;DHT22;1107;48.654;9.250;2023-07-09T14:10:12;37.60;1.00
2202;DHT22;1107;48.654;9.250;2023-07-09T14:12:43;37.60;1.00
2202;DHT22;1107;48.654;9.250;2023-07-09T14:15:14;37.50;1.00
2202;DHT22;1107;48.654;9.250;2023-07-09T14:17:42;37.10;1.00
2202;DHT22;1107;48.654;9.250;2023-07-09T14:20:12;37.10;1.00
2202;DHT22;1107;48.654;9.250;2023-07-09T14:22:40;36.90;1.00
2202;DHT22;1107;48.654;9.250;2023-07-09T14:25:14;37.20;1.00
2202;DHT22;1107;48.654;9.250;2023-07-09T14:27:42;37.40;1.00
2202;DHT22;1107;48.654;9.250;2023-07-09T14:30:14;37.20;1.00
2202;DHT22;1107;48.654;9.250;2023-07-09T14:32:43;36.70;1.00
2202;DHT22;1107;48.654;9.250;2023-07-09T14:35:14;36.50;1.00
2202;DHT22;1107;48.654;9.250;2023-07-09T14:37:41;36.20;1.00
2202;DHT22;1107;48.654;9.250;2023-07-09T14:40:09;36.40;1.00
2202;DHT22;1107;48.654;9.250;2023-07-09T14:42:37;36.60;1.00
2202;DHT22;1107;48.654;9.250;2023-07-09T14:45:06;36.30;1.00
2202;DHT22;1107;48.654;9.250;2023-07-09T14:47:43;36.10;1.00
2202;DHT22;1107;48.654;9.250;2023-07-09T14:50:11;36.10;1.00
2202;DHT22;1107;48.654;9.250;2023-07-09T14:52:38;36.10;1.00
2202;DHT22;1107;48.654;9.250;2023-07-09T14:55:07;36.10;1.00
2202;DHT22;1107;48.654;9.250;2023-07-09T14:57:35;36.20;1.00
2202;DHT22;1107;48.654;9.250;2023-07-09T15:00:02;36.20;1.00
2202;DHT22;1107;48.654;9.250;2023-07-09T15:02:33;36.20;1.00
2202;DHT22;1107;48.654;9.250;2023-07-09T15:05:03;36.20;1.00
2202;DHT22;1107;48.654;9.250;2023-07-09T15:07:31;36.10;1.00
2202;DHT22;1107;48.654;9.250;2023-07-09T15:09:59;35.70;1.00
2202;DHT22;1107;48.654;9.250;2023-07-09T15:12:27;35.60;1.00
2202;DHT22;1107;48.654;9.250;2023-07-09T15:15:00;35.70;1.00
2202;DHT22;1107;48.654;9.250;2023-07-09T15:17:29;35.80;1.00
2202;DHT22;1107;48.654;9.250;2023-07-09T15:19:56;35.80;1.00
2202;DHT22;1107;48.654;9.250;2023-07-09T15:22:30;35.80;1.00
2202;DHT22;1107;48.654;9.250;2023-07-09T15:24:58;35.80;1.00
2202;DHT22;1107;48.654;9.250;2023-07-09T15:27:25;35.50;1.00
2202;DHT22;1107;48.654;9.250;2023-07-09T15:29:52;35.50;1.00
2202;DHT22;1107;48.654;9.250;2023-07-09T15:32:19;35.60;1.00
2202;DHT22;1107;48.654;9.250;2023-07-09T15:34:46;35.70;1.00
2202;DHT22;1107;48.654;9.250;2023-07-09T15:37:15;35.60;1.00
2202;DHT22;1107;48.654;9.250;2023-07-09T15:39:44;35.50;1.00
2202;DHT22;1107;48.654;9.250;2023-07-09T15:42:12;35.40;1.00
2202;DHT22;1107;48.654;9.250;2023-07-09T15:44:40;35.40;1.00
2202;DHT22;1107;48.654;9.250;2023-07-09T15:47:15;35.50;1.00
2202;DHT22;1107;48.654;9.250;2023-07-09T15:49:43;35.40;1.00
2202;DHT22;1107;48.654;9.250;2023-07-09T15:52:10;35.30;1.00
2202;DHT22;1107;48.654;9.250;2023-07-09T15:54:37;35.00;1.00
2202;DHT22;1107;48.654;9.250;2023-07-09T15:57:05;34.90;1.00
2202;DHT22;1107;48.654;9.250;2023-07-09T15:59:35;34.60;1.00
2202;DHT22;1107;48.654;9.250;2023-07-09T16:02:12;34.60;1.00
2202;DHT22;1107;48.654;9.250;2023-07-09T16:04:42;34.70;1.00
2202;DHT22;1107;48.654;9.250;2023-07-09T16:07:09;34.60;1.00
2202;DHT22;1107;48.654;9.250;2023-07-09T16:09:36;34.50;1.00
2202;DHT22;1107;48.654;9.250;2023-07-09T16:12:10;34.40;1.00
2202;DHT22;1107;48.654;9.250;2023-07-09T16:14:38;34.30;1.00
2202;DHT22;1107;48.654;9.250;2023-07-09T16:17:10;34.30;1.00
2202;DHT22;1107;48.654;9.250;2023-07-09T16:19:37;34.20;1.00
2202;DHT22;1107;48.654;9.250;2023-07-09T16:22:05;34.10;1.00
2202;DHT22;1107;48.654;9.250;2023-07-09T16:24:34;34.10;1.00
2202;DHT22;1107;48.654;9.250;2023-07-09T16:27:03;34.00;1.00
2202;DHT22;1107;48.654;9.250;2023-07-09T16:29:33;34.00;1.00
2202;DHT22;1107;48.654;9.250;2023-07-09T16:32:01;34.00;1.00